createdAt,value
2023-01-26T00:02:10.873Z,-3.65
2023-01-26T00:04:40.176Z,-3.65
2023-01-26T00:07:09.352Z,-3.66
2023-01-26T00:09:39.061Z,-3.67
2023-01-26T00:12:09.046Z,-3.64
2023-01-26T00:14:50.276Z,-3.61
2023-01-26T00:17:26.461Z,-3.58
2023-01-26T00:19:57.267Z,-3.55
2023-01-26T00:22:27.445Z,-3.51
2023-01-26T00:24:56.869Z,-3.48
2023-01-26T00:27:26.418Z,-3.50
2023-01-26T00:29:55.676Z,-3.48
2023-01-26T00:32:27.989Z,-3.47
2023-01-26T00:34:57.265Z,-3.47
2023-01-26T00:37:26.671Z,-3.48
2023-01-26T00:39:56.445Z,-3.48
2023-01-26T00:42:26.342Z,-3.50
2023-01-26T00:44:55.560Z,-3.51
2023-01-26T00:47:24.702Z,-3.55
2023-01-26T00:49:54.227Z,-3.58
2023-01-26T00:52:23.469Z,-3.64
2023-01-26T00:54:52.829Z,-3.70
2023-01-26T00:57:22.053Z,-3.75
2023-01-26T00:59:51.239Z,-3.75
2023-01-26T01:02:21.063Z,-3.75
2023-01-26T01:04:51.897Z,-3.75
2023-01-26T01:07:21.703Z,-3.74
2023-01-26T01:09:51.116Z,-3.75
2023-01-26T01:12:20.425Z,-3.78
2023-01-26T01:14:50.240Z,-3.81
2023-01-26T01:17:19.621Z,-3.83
2023-01-26T01:19:49.037Z,-3.84
2023-01-26T01:22:18.859Z,-3.85
2023-01-26T01:24:48.659Z,-3.86
2023-01-26T01:27:17.817Z,-3.84
2023-01-26T01:29:46.988Z,-3.84
2023-01-26T01:32:16.792Z,-3.86
2023-01-26T01:34:49.369Z,-3.89
2023-01-26T01:37:18.628Z,-3.89
2023-01-26T01:39:49.686Z,-3.92
2023-01-26T01:42:18.935Z,-3.96
2023-01-26T01:44:48.453Z,-3.95
2023-01-26T01:47:24.127Z,-3.93
2023-01-26T01:49:53.428Z,-3.92
2023-01-26T01:52:28.049Z,-3.92
2023-01-26T01:55:08.061Z,-3.91
2023-01-26T01:57:45.454Z,-3.93
2023-01-26T02:00:20.869Z,-4.01
2023-01-26T02:03:11.933Z,-4.08
2023-01-26T02:05:54.114Z,-4.13
2023-01-26T02:08:29.272Z,-4.14
2023-01-26T02:11:00.614Z,-4.10
2023-01-26T02:13:32.233Z,-4.10
2023-01-26T02:16:05.059Z,-4.10
2023-01-26T02:18:35.868Z,-4.12
2023-01-26T02:21:07.795Z,-4.09
2023-01-26T02:24:13.240Z,-4.09
2023-01-26T02:26:42.998Z,-4.08
2023-01-26T02:29:12.672Z,-4.08
2023-01-26T02:31:44.875Z,-4.07
2023-01-26T02:34:14.209Z,-4.06
2023-01-26T02:36:43.950Z,-4.05
2023-01-26T02:39:55.344Z,-4.03
2023-01-26T02:42:39.831Z,-3.98
2023-01-26T02:45:10.639Z,-3.97
2023-01-26T02:47:41.092Z,-3.96
2023-01-26T02:50:11.622Z,-3.95
2023-01-26T02:52:41.417Z,-3.94
2023-01-26T02:55:26.666Z,-3.95
2023-01-26T02:58:01.046Z,-3.98
2023-01-26T03:00:32.647Z,-3.97
2023-01-26T03:03:02.596Z,-4.01
2023-01-26T03:05:35.736Z,-4.04
2023-01-26T03:08:06.762Z,-4.02
2023-01-26T03:10:40.773Z,-4.00
2023-01-26T03:13:10.492Z,-3.92
2023-01-26T03:16:09.276Z,-3.90
2023-01-26T03:18:57.416Z,-3.93
2023-01-26T03:21:45.632Z,-3.99
2023-01-26T03:24:34.426Z,-4.12
2023-01-26T03:27:25.312Z,-4.18
2023-01-26T03:29:58.109Z,-4.23
2023-01-26T03:32:31.041Z,-4.25
2023-01-26T03:35:01.599Z,-4.26
2023-01-26T03:37:37.605Z,-4.23
2023-01-26T03:40:31.848Z,-4.25
2023-01-26T03:43:27.085Z,-4.25
2023-01-26T03:46:14.779Z,-4.27
2023-01-26T03:49:02.635Z,-4.27
2023-01-26T03:51:50.951Z,-4.31
2023-01-26T03:54:38.700Z,-4.27
2023-01-26T03:57:09.193Z,-4.22
2023-01-26T03:59:38.799Z,-4.16
2023-01-26T04:02:31.908Z,-4.13
2023-01-26T04:05:20.207Z,-4.08
2023-01-26T04:08:12.677Z,-4.11
2023-01-26T04:10:42.465Z,-4.12
2023-01-26T04:13:30.838Z,-4.09
2023-01-26T04:16:23.947Z,-4.07
2023-01-26T04:19:12.416Z,-4.06
2023-01-26T04:21:42.465Z,-4.07
2023-01-26T04:24:22.925Z,-4.03
2023-01-26T04:26:57.602Z,-4.01
2023-01-26T04:29:36.599Z,-3.99
2023-01-26T04:32:06.071Z,-3.94
2023-01-26T04:34:36.862Z,-3.97
2023-01-26T04:37:13.249Z,-4.04
2023-01-26T04:39:49.901Z,-4.07
2023-01-26T04:42:20.240Z,-4.10
2023-01-26T04:44:49.849Z,-4.12
2023-01-26T04:47:23.715Z,-4.13
2023-01-26T04:49:53.283Z,-4.14
2023-01-26T04:52:25.769Z,-4.13
2023-01-26T04:54:55.579Z,-4.16
2023-01-26T04:57:25.666Z,-4.28
2023-01-26T04:59:55.497Z,-4.33
2023-01-26T05:02:25.026Z,-4.34
2023-01-26T05:04:54.117Z,-4.39
2023-01-26T05:07:24.718Z,-4.40
2023-01-26T05:09:56.230Z,-4.41
2023-01-26T05:12:43.157Z,-4.37
2023-01-26T05:15:36.858Z,-4.46
2023-01-26T05:18:25.596Z,-4.54
2023-01-26T05:21:05.068Z,-4.62
2023-01-26T05:23:47.942Z,-4.67
2023-01-26T05:26:38.906Z,-4.69
2023-01-26T05:29:14.525Z,-4.73
2023-01-26T05:31:43.830Z,-4.77
2023-01-26T05:34:14.002Z,-4.79
2023-01-26T05:36:44.298Z,-4.76
2023-01-26T05:39:13.913Z,-4.81
2023-01-26T05:41:45.337Z,-4.79
2023-01-26T05:44:20.663Z,-4.70
2023-01-26T05:47:01.356Z,-4.64
2023-01-26T05:49:31.662Z,-4.70
2023-01-26T05:52:01.265Z,-4.74
2023-01-26T05:54:31.991Z,-4.79
2023-01-26T05:57:03.164Z,-4.89
2023-01-26T05:59:33.836Z,-4.99
2023-01-26T06:02:04.118Z,-4.99
2023-01-26T06:04:35.458Z,-4.97
2023-01-26T06:07:05.541Z,-4.95
2023-01-26T06:09:38.996Z,-4.92
2023-01-26T06:12:35.921Z,-4.92
2023-01-26T06:15:20.715Z,-4.98
2023-01-26T06:17:51.809Z,-4.99
2023-01-26T06:20:21.708Z,-5.03
2023-01-26T06:23:00.887Z,-4.97
2023-01-26T06:25:31.987Z,-4.92
2023-01-26T06:28:04.469Z,-4.89
2023-01-26T06:30:37.615Z,-4.90
2023-01-26T06:33:10.698Z,-4.85
2023-01-26T06:35:43.402Z,-4.83
2023-01-26T06:38:16.282Z,-4.83
2023-01-26T06:40:47.402Z,-4.84
2023-01-26T06:43:17.750Z,-4.82
2023-01-26T06:45:48.073Z,-4.81
2023-01-26T06:48:17.765Z,-4.82
2023-01-26T06:50:47.205Z,-4.85
2023-01-26T06:53:38.363Z,-4.89
2023-01-26T06:56:40.262Z,-4.90
2023-01-26T06:59:30.426Z,-4.90
2023-01-26T07:02:21.061Z,-4.89
2023-01-26T07:04:51.211Z,-4.85
2023-01-26T07:07:21.682Z,-4.81
2023-01-26T07:10:11.726Z,-4.77
2023-01-26T07:12:46.453Z,-4.80
2023-01-26T07:15:16.205Z,-4.76
2023-01-26T07:17:46.815Z,-4.71
2023-01-26T07:20:17.401Z,-4.68
2023-01-26T07:22:47.616Z,-4.62
2023-01-26T07:25:18.721Z,-4.56
2023-01-26T07:27:48.593Z,-4.55
2023-01-26T07:30:19.511Z,-4.62
2023-01-26T07:32:49.466Z,-4.67
2023-01-26T07:35:19.682Z,-4.67
2023-01-26T07:37:49.455Z,-4.62
2023-01-26T07:40:20.324Z,-4.58
2023-01-26T07:42:50.605Z,-4.47
2023-01-26T07:45:24.428Z,-4.39
2023-01-26T07:47:56.696Z,-4.33
2023-01-26T07:50:27.430Z,-4.23
2023-01-26T07:52:57.958Z,-4.13
2023-01-26T07:55:28.326Z,-4.13
2023-01-26T07:57:58.664Z,-4.13
2023-01-26T08:00:28.958Z,-4.09
2023-01-26T08:02:58.705Z,-4.10
2023-01-26T08:05:28.827Z,-4.15
2023-01-26T08:08:01.937Z,-4.15
2023-01-26T08:10:35.652Z,-4.10
2023-01-26T08:13:05.527Z,-4.04
2023-01-26T08:15:36.060Z,-3.98
2023-01-26T08:18:07.096Z,-4.02
2023-01-26T08:20:37.110Z,-4.06
2023-01-26T08:23:07.698Z,-4.05
2023-01-26T08:25:37.768Z,-4.00
2023-01-26T08:28:07.921Z,-3.93
2023-01-26T08:30:42.326Z,-3.80
2023-01-26T08:33:12.810Z,-3.67
2023-01-26T08:35:42.570Z,-3.53
2023-01-26T08:38:12.404Z,-3.44
2023-01-26T08:40:43.023Z,-3.48
2023-01-26T08:43:13.503Z,-3.53
2023-01-26T08:45:43.617Z,-3.48
2023-01-26T08:48:13.791Z,-3.47
2023-01-26T08:50:44.774Z,-3.41
2023-01-26T08:53:15.423Z,-3.28
2023-01-26T08:55:45.588Z,-3.19
2023-01-26T08:58:15.505Z,-3.16
2023-01-26T09:00:47.203Z,-3.13
2023-01-26T09:03:17.132Z,-3.04
2023-01-26T09:05:46.755Z,-2.90
2023-01-26T09:08:16.123Z,-2.83
2023-01-26T09:10:46.736Z,-2.85
2023-01-26T09:13:16.550Z,-2.83
2023-01-26T09:16:08.212Z,-2.78
2023-01-26T09:18:39.871Z,-2.79
2023-01-26T09:21:11.046Z,-2.80
2023-01-26T09:23:41.561Z,-2.69
2023-01-26T09:26:11.513Z,-2.63
2023-01-26T09:28:41.751Z,-2.54
2023-01-26T09:31:12.497Z,-2.42
2023-01-26T09:33:44.892Z,-2.33
2023-01-26T09:36:16.411Z,-2.25
2023-01-26T09:38:47.884Z,-2.19
2023-01-26T09:41:57.531Z,-2.15
2023-01-26T09:44:28.434Z,-2.11
2023-01-26T09:47:17.308Z,-2.08
2023-01-26T09:50:10.889Z,-2.00
2023-01-26T09:52:52.052Z,-1.74
2023-01-26T09:55:22.906Z,-1.55
2023-01-26T09:58:21.525Z,-1.37
2023-01-26T10:00:52.928Z,-1.23
2023-01-26T10:03:45.738Z,-1.22
2023-01-26T10:06:31.882Z,-1.29
2023-01-26T10:09:16.669Z,-1.34
2023-01-26T10:11:49.159Z,-1.31
2023-01-26T10:14:43.800Z,-1.23
2023-01-26T10:17:42.552Z,-1.06
2023-01-26T10:20:32.087Z,-0.82
2023-01-26T10:23:07.805Z,-0.67
2023-01-26T10:25:41.538Z,-0.64
2023-01-26T10:28:21.417Z,-0.56
2023-01-26T10:30:53.679Z,-0.44
2023-01-26T10:33:39.386Z,-0.31
2023-01-26T10:36:12.976Z,-0.23
2023-01-26T10:38:51.029Z,-0.23
2023-01-26T10:41:32.229Z,-0.16
2023-01-26T10:44:03.240Z,-0.10
2023-01-26T10:46:41.690Z,-0.07
2023-01-26T10:49:17.826Z,-0.02
2023-01-26T10:52:08.432Z,0.07
2023-01-26T10:54:40.447Z,0.20
2023-01-26T10:57:30.095Z,0.22
2023-01-26T11:00:01.293Z,0.23
2023-01-26T11:02:32.268Z,0.30
2023-01-26T11:05:08.818Z,0.37
2023-01-26T11:07:43.388Z,0.44
2023-01-26T11:10:33.320Z,0.52
2023-01-26T11:13:21.368Z,0.67
2023-01-26T11:16:02.085Z,0.80
2023-01-26T11:18:54.086Z,0.83
2023-01-26T11:21:29.204Z,0.94
2023-01-26T11:24:08.640Z,1.01
2023-01-26T11:26:56.705Z,1.14
2023-01-26T11:29:37.982Z,1.38
2023-01-26T11:32:46.870Z,1.65
2023-01-26T11:35:34.859Z,1.90
2023-01-26T11:38:14.910Z,1.94
2023-01-26T11:40:47.700Z,2.00
2023-01-26T11:43:36.029Z,2.12
2023-01-26T11:46:08.660Z,2.15
2023-01-26T11:48:56.309Z,2.13
2023-01-26T11:52:05.404Z,1.98
2023-01-26T11:54:40.878Z,1.91
2023-01-26T11:57:28.674Z,1.87
2023-01-26T12:00:02.300Z,1.84
2023-01-26T12:02:43.830Z,1.80
2023-01-26T12:05:45.227Z,1.74
2023-01-26T12:08:44.157Z,1.65
2023-01-26T12:11:45.519Z,1.63
2023-01-26T12:14:27.049Z,1.62
2023-01-26T12:17:17.559Z,1.61
2023-01-26T12:20:15.827Z,1.57
2023-01-26T12:22:50.273Z,1.52
2023-01-26T12:25:37.733Z,1.44
2023-01-26T12:28:29.394Z,1.36
2023-01-26T12:31:12.036Z,1.36
2023-01-26T12:33:41.775Z,1.42
2023-01-26T12:36:41.429Z,1.44
2023-01-26T12:39:25.276Z,1.46
2023-01-26T12:42:19.324Z,1.51
2023-01-26T12:45:02.691Z,1.56
2023-01-26T12:47:35.273Z,1.65
2023-01-26T12:50:11.588Z,1.72
2023-01-26T12:52:45.619Z,1.77
2023-01-26T12:55:22.429Z,1.78
2023-01-26T12:58:11.246Z,1.81
2023-01-26T13:00:40.636Z,1.84
2023-01-26T13:03:42.371Z,1.85
2023-01-26T13:06:12.192Z,1.86
2023-01-26T13:08:52.558Z,1.87
2023-01-26T13:11:50.204Z,1.89
2023-01-26T13:14:36.193Z,1.86
2023-01-26T13:17:18.843Z,1.81
2023-01-26T13:19:49.177Z,1.80
2023-01-26T13:22:24.466Z,1.80
2023-01-26T13:24:57.244Z,1.76
2023-01-26T13:27:34.004Z,1.65
2023-01-26T13:30:04.530Z,1.67
2023-01-26T13:32:37.502Z,1.66
2023-01-26T13:35:09.533Z,1.57
2023-01-26T13:37:52.528Z,1.50
2023-01-26T13:40:24.824Z,1.48
2023-01-26T13:43:27.286Z,1.42
2023-01-26T13:46:23.276Z,1.38
2023-01-26T13:48:54.017Z,1.37
2023-01-26T13:51:25.676Z,1.40
2023-01-26T13:54:08.452Z,1.36
2023-01-26T13:56:57.288Z,1.26
2023-01-26T13:59:27.176Z,1.17
2023-01-26T14:01:57.442Z,1.12
2023-01-26T14:04:31.639Z,1.06
2023-01-26T14:07:07.201Z,1.00
2023-01-26T14:09:51.047Z,0.92
2023-01-26T14:12:25.850Z,0.89
2023-01-26T14:14:59.416Z,0.86
2023-01-26T14:17:31.350Z,0.82
2023-01-26T14:20:04.082Z,0.77
2023-01-26T14:22:34.085Z,0.75
2023-01-26T14:25:09.686Z,0.72
2023-01-26T14:27:40.461Z,0.69
2023-01-26T14:30:31.502Z,0.68
2023-01-26T14:33:17.557Z,0.69
2023-01-26T14:35:59.758Z,0.73
2023-01-26T14:38:30.707Z,0.73
2023-01-26T14:41:01.589Z,0.70
2023-01-26T14:43:31.059Z,0.67
2023-01-26T14:46:08.615Z,0.65
2023-01-26T14:48:41.060Z,0.64
2023-01-26T14:51:16.830Z,0.61
2023-01-26T14:53:51.190Z,0.58
2023-01-26T14:56:21.827Z,0.51
2023-01-26T14:58:53.435Z,0.47
2023-01-26T15:01:25.007Z,0.46
2023-01-26T15:04:19.350Z,0.45
2023-01-26T15:06:49.467Z,0.44
2023-01-26T15:09:23.170Z,0.43
2023-01-26T15:12:12.926Z,0.42
2023-01-26T15:14:46.428Z,0.40
2023-01-26T15:17:29.217Z,0.40
2023-01-26T15:20:00.405Z,0.41
2023-01-26T15:22:29.971Z,0.39
2023-01-26T15:25:04.028Z,0.38
2023-01-26T15:27:35.910Z,0.39
2023-01-26T15:30:08.398Z,0.39
2023-01-26T15:32:40.002Z,0.37
2023-01-26T15:35:19.461Z,0.37
2023-01-26T15:37:49.922Z,0.32
2023-01-26T15:40:20.575Z,0.29
2023-01-26T15:42:50.057Z,0.27
2023-01-26T15:45:25.929Z,0.27
2023-01-26T15:47:55.705Z,0.24
2023-01-26T15:50:28.074Z,0.23
2023-01-26T15:52:58.423Z,0.21
2023-01-26T15:55:30.862Z,0.19
2023-01-26T15:58:01.585Z,0.17
2023-01-26T16:00:31.942Z,0.15
2023-01-26T16:03:06.795Z,0.14
2023-01-26T16:05:40.247Z,0.11
2023-01-26T16:08:10.944Z,0.08
2023-01-26T16:10:42.513Z,0.04
2023-01-26T16:13:20.937Z,-0.00
2023-01-26T16:15:54.763Z,-0.05
2023-01-26T16:18:26.399Z,-0.06
2023-01-26T16:20:56.276Z,-0.07
2023-01-26T16:23:32.540Z,-0.09
2023-01-26T16:26:06.143Z,-0.10
2023-01-26T16:28:38.956Z,-0.12
2023-01-26T16:31:22.782Z,-0.13
2023-01-26T16:33:54.654Z,-0.16
2023-01-26T16:36:29.561Z,-0.17
2023-01-26T16:39:00.165Z,-0.20
2023-01-26T16:41:36.228Z,-0.24
2023-01-26T16:44:13.841Z,-0.29
2023-01-26T16:46:48.980Z,-0.28
2023-01-26T16:49:20.401Z,-0.32
2023-01-26T16:51:52.822Z,-0.36
2023-01-26T16:54:24.510Z,-0.41
2023-01-26T16:56:54.532Z,-0.44
2023-01-26T16:59:25.081Z,-0.45
2023-01-26T17:02:04.631Z,-0.48
2023-01-26T17:04:40.069Z,-0.46
2023-01-26T17:07:10.297Z,-0.48
2023-01-26T17:09:42.359Z,-0.49
2023-01-26T17:12:17.231Z,-0.50
2023-01-26T17:14:48.221Z,-0.52
2023-01-26T17:17:18.604Z,-0.56
2023-01-26T17:19:48.935Z,-0.59
2023-01-26T17:22:20.119Z,-0.62
2023-01-26T17:24:52.083Z,-0.66
2023-01-26T17:27:22.271Z,-0.68
2023-01-26T17:29:52.223Z,-0.71
2023-01-26T17:32:26.272Z,-0.74
2023-01-26T17:34:57.587Z,-0.75
2023-01-26T17:37:33.027Z,-0.74
2023-01-26T17:40:03.708Z,-0.73
2023-01-26T17:42:35.563Z,-0.73
2023-01-26T17:45:06.620Z,-0.73
2023-01-26T17:47:39.538Z,-0.76
2023-01-26T17:50:17.615Z,-0.79
2023-01-26T17:52:54.742Z,-0.83
2023-01-26T17:55:30.179Z,-0.86
2023-01-26T17:58:02.602Z,-0.89
2023-01-26T18:00:35.593Z,-0.91
2023-01-26T18:03:09.339Z,-0.93
2023-01-26T18:05:41.002Z,-0.92
2023-01-26T18:08:14.659Z,-0.91
2023-01-26T18:10:48.325Z,-0.88
2023-01-26T18:13:18.654Z,-0.87
2023-01-26T18:15:49.344Z,-0.87
2023-01-26T18:18:19.854Z,-0.89
2023-01-26T18:20:51.299Z,-0.89
2023-01-26T18:23:23.073Z,-0.88
2023-01-26T18:25:56.148Z,-0.86
2023-01-26T18:28:26.062Z,-0.85
2023-01-26T18:30:57.274Z,-0.85
2023-01-26T18:33:31.745Z,-0.85
2023-01-26T18:36:10.357Z,-0.86
2023-01-26T18:38:42.272Z,-0.89
2023-01-26T18:41:15.694Z,-0.92
2023-01-26T18:43:46.509Z,-0.95
2023-01-26T18:46:16.631Z,-1.01
2023-01-26T18:48:48.846Z,-1.07
2023-01-26T18:51:23.602Z,-1.13
2023-01-26T18:54:00.364Z,-1.19
2023-01-26T18:56:37.786Z,-1.26
2023-01-26T18:59:11.510Z,-1.31
2023-01-26T19:01:44.317Z,-1.38
2023-01-26T19:04:16.608Z,-1.46
2023-01-26T19:06:51.077Z,-1.51
2023-01-26T19:09:24.522Z,-1.57
2023-01-26T19:11:56.869Z,-1.65
2023-01-26T19:14:32.125Z,-1.75
2023-01-26T19:17:03.472Z,-1.85
2023-01-26T19:19:34.886Z,-1.91
2023-01-26T19:22:04.912Z,-1.98
2023-01-26T19:24:37.797Z,-2.02
2023-01-26T19:27:08.089Z,-2.08
2023-01-26T19:29:37.887Z,-2.10
2023-01-26T19:32:07.746Z,-2.11
2023-01-26T19:34:38.746Z,-2.14
2023-01-26T19:37:08.959Z,-2.15
2023-01-26T19:39:38.922Z,-2.14
2023-01-26T19:42:08.525Z,-2.11
2023-01-26T19:44:38.283Z,-2.07
2023-01-26T19:47:08.240Z,-2.01
2023-01-26T19:49:38.824Z,-1.96
2023-01-26T19:52:08.482Z,-1.93
2023-01-26T19:54:39.890Z,-1.91
2023-01-26T19:57:10.453Z,-1.88
2023-01-26T19:59:41.412Z,-1.85
2023-01-26T20:02:12.662Z,-1.79
2023-01-26T20:04:46.822Z,-1.75
2023-01-26T20:07:17.738Z,-1.71
2023-01-26T20:09:51.526Z,-1.66
2023-01-26T20:12:21.739Z,-1.61
2023-01-26T20:14:52.488Z,-1.59
2023-01-26T20:17:21.856Z,-1.67
2023-01-26T20:19:52.400Z,-1.80
2023-01-26T20:22:24.641Z,-1.90
2023-01-26T20:24:54.963Z,-1.99
2023-01-26T20:27:24.920Z,-2.02
2023-01-26T20:29:54.881Z,-2.04
2023-01-26T20:32:24.840Z,-2.07
2023-01-26T20:34:54.747Z,-2.15
2023-01-26T20:37:24.722Z,-2.23
2023-01-26T20:39:54.350Z,-2.27
2023-01-26T20:42:24.064Z,-2.31
2023-01-26T20:44:54.860Z,-2.36
2023-01-26T20:47:24.502Z,-2.43
2023-01-26T20:49:56.648Z,-2.53
2023-01-26T20:52:26.220Z,-2.60
2023-01-26T20:54:55.684Z,-2.64
2023-01-26T20:57:29.502Z,-2.65
2023-01-26T20:59:58.992Z,-2.67
2023-01-26T21:02:28.308Z,-2.66
2023-01-26T21:04:57.970Z,-2.65
2023-01-26T21:07:29.041Z,-2.64
2023-01-26T21:09:58.531Z,-2.63
2023-01-26T21:12:28.708Z,-2.61
2023-01-26T21:14:58.019Z,-2.59
2023-01-26T21:17:28.023Z,-2.59
2023-01-26T21:19:57.574Z,-2.58
2023-01-26T21:22:27.005Z,-2.57
2023-01-26T21:24:56.133Z,-2.59
2023-01-26T21:27:25.390Z,-2.62
2023-01-26T21:29:54.565Z,-2.65
2023-01-26T21:32:24.212Z,-2.68
2023-01-26T21:34:53.803Z,-2.72
2023-01-26T21:37:23.218Z,-2.77
2023-01-26T21:39:52.351Z,-2.80
2023-01-26T21:42:21.757Z,-2.82
2023-01-26T21:45:09.640Z,-2.82
2023-01-26T21:47:39.265Z,-2.80
2023-01-26T21:50:09.161Z,-2.79
2023-01-26T21:52:57.663Z,-2.77
2023-01-26T21:55:28.061Z,-2.73
2023-01-26T21:58:16.501Z,-2.71
2023-01-26T22:00:47.030Z,-2.70
2023-01-26T22:03:17.690Z,-2.68
2023-01-26T22:05:54.238Z,-2.64
2023-01-26T22:08:24.580Z,-2.62
2023-01-26T22:10:55.725Z,-2.61
2023-01-26T22:13:25.618Z,-2.58
2023-01-26T22:15:55.802Z,-2.56
2023-01-26T22:18:26.922Z,-2.52
2023-01-26T22:20:56.568Z,-2.50
2023-01-26T22:23:26.168Z,-2.46
2023-01-26T22:25:57.155Z,-2.43
2023-01-26T22:28:26.556Z,-2.43
2023-01-26T22:31:03.076Z,-2.42
2023-01-26T22:33:32.854Z,-2.41
2023-01-26T22:36:08.473Z,-2.39
2023-01-26T22:38:38.254Z,-2.39
2023-01-26T22:41:07.702Z,-2.39
2023-01-26T22:43:37.420Z,-2.40
2023-01-26T22:46:08.502Z,-2.41
2023-01-26T22:48:38.159Z,-2.41
2023-01-26T22:51:11.492Z,-2.39
2023-01-26T22:53:40.870Z,-2.35
2023-01-26T22:56:10.537Z,-2.34
2023-01-26T22:58:56.563Z,-2.33
2023-01-26T23:01:33.249Z,-2.30
2023-01-26T23:04:02.629Z,-2.26
2023-01-26T23:06:31.972Z,-2.22
2023-01-26T23:09:04.943Z,-2.19
2023-01-26T23:11:34.124Z,-2.17
2023-01-26T23:14:03.345Z,-2.14
2023-01-26T23:16:32.818Z,-2.11
2023-01-26T23:19:02.035Z,-2.07
2023-01-26T23:21:33.144Z,-2.03
2023-01-26T23:24:03.013Z,-2.01
2023-01-26T23:26:32.241Z,-1.99
2023-01-26T23:29:01.559Z,-1.97
2023-01-26T23:31:32.508Z,-1.95
2023-01-26T23:34:01.751Z,-1.88
2023-01-26T23:36:31.276Z,-1.83
2023-01-26T23:39:00.830Z,-1.79
2023-01-26T23:41:30.084Z,-1.76
2023-01-26T23:43:59.492Z,-1.72
2023-01-26T23:46:29.122Z,-1.68
2023-01-26T23:48:58.530Z,-1.66
2023-01-26T23:51:28.083Z,-1.62
2023-01-26T23:53:57.736Z,-1.59
2023-01-26T23:56:26.957Z,-1.57
2023-01-26T23:58:56.589Z,-1.53
